sensor_id;sensor_type;location;lat;lon;timestamp;pressure;altitude;pressure_sealevel;temperature;humidity
45731;BME280;31440;48.584;13.460;2023-02-22T00:01:48;96888.13;;;3.27;100.00
45731;BME280;31440;48.584;13.460;2023-02-22T00:05:14;96878.56;;;3.42;100.00
45731;BME280;31440;48.584;13.460;2023-02-22T00:08:25;96884.81;;;3.17;100.00
45731;BME280;31440;48.584;13.460;2023-02-22T00:11:33;96877.81;;;3.31;100.00
45731;BME280;31440;48.584;13.460;2023-02-22T00:14:38;96879.56;;;3.28;100.00
45731;BME280;31440;48.584;13.460;2023-02-22T00:17:43;96842.84;;;3.16;100.00
45731;BME280;31440;48.584;13.460;2023-02-22T00:20:48;96877.06;;;3.20;100.00
45731;BME280;31440;48.584;13.460;2023-02-22T00:23:53;96876.56;;;2.80;100.00
45731;BME280;31440;48.584;13.460;2023-02-22T00:26:58;96848.22;;;2.91;100.00
45731;BME280;31440;48.584;13.460;2023-02-22T00:30:06;96876.63;;;2.72;100.00
45731;BME280;31440;48.584;13.460;2023-02-22T00:33:13;96854.31;;;2.79;100.00
45731;BME280;31440;48.584;13.460;2023-02-22T00:36:18;96847.34;;;2.93;100.00
45731;BME280;31440;48.584;13.460;2023-02-22T00:39:23;96845.94;;;2.52;100.00
45731;BME280;31440;48.584;13.460;2023-02-22T00:42:27;96852.75;;;2.63;100.00
45731;BME280;31440;48.584;13.460;2023-02-22T00:45:33;96854.31;;;2.79;100.00
45731;BME280;31440;48.584;13.460;2023-02-22T00:48:38;96864.59;;;2.76;100.00
45731;BME280;31440;48.584;13.460;2023-02-22T00:51:43;96841.63;;;2.62;100.00
45731;BME280;31440;48.584;13.460;2023-02-22T00:54:47;96824.47;;;2.66;100.00
45731;BME280;31440;48.584;13.460;2023-02-22T00:57:54;96862.22;;;2.53;100.00
45731;BME280;31440;48.584;13.460;2023-02-22T01:00:58;96833.31;;;2.30;100.00
45731;BME280;31440;48.584;13.460;2023-02-22T01:04:03;96872.56;;;2.41;100.00
45731;BME280;31440;48.584;13.460;2023-02-22T01:07:08;96834.16;;;2.27;100.00
45731;BME280;31440;48.584;13.460;2023-02-22T01:10:13;96832.59;;;2.02;100.00
45731;BME280;31440;48.584;13.460;2023-02-22T01:13:19;96837.75;;;1.97;100.00
45731;BME280;31440;48.584;13.460;2023-02-22T01:16:23;96833.69;;;1.43;100.00
45731;BME280;31440;48.584;13.460;2023-02-22T01:19:28;96837.97;;;1.41;100.00
45731;BME280;31440;48.584;13.460;2023-02-22T01:22:33;96855.84;;;1.70;100.00
45731;BME280;31440;48.584;13.460;2023-02-22T01:25:38;96840.53;;;1.52;100.00
45731;BME280;31440;48.584;13.460;2023-02-22T01:28:42;96832.03;;;1.24;100.00
45731;BME280;31440;48.584;13.460;2023-02-22T01:31:54;96845.63;;;1.58;100.00
45731;BME280;31440;48.584;13.460;2023-02-22T01:34:59;96842.22;;;1.57;100.00
45731;BME280;31440;48.584;13.460;2023-02-22T01:38:04;96844.00;;;1.31;100.00
45731;BME280;31440;48.584;13.460;2023-02-22T01:41:08;96851.63;;;1.46;100.00
45731;BME280;31440;48.584;13.460;2023-02-22T01:47:22;96824.34;;;1.30;100.00
45731;BME280;31440;48.584;13.460;2023-02-22T01:50:28;96823.38;;;1.60;100.00
45731;BME280;31440;48.584;13.460;2023-02-22T01:53:52;96805.56;;;1.29;100.00
45731;BME280;31440;48.584;13.460;2023-02-22T01:57:04;96806.41;;;1.37;100.00
45731;BME280;31440;48.584;13.460;2023-02-22T02:00:13;96845.72;;;1.29;100.00
45731;BME280;31440;48.584;13.460;2023-02-22T02:03:25;96844.00;;;1.29;100.00
45731;BME280;31440;48.584;13.460;2023-02-22T02:06:33;96837.16;;;1.30;100.00
45731;BME280;31440;48.584;13.460;2023-02-22T02:09:46;96835.41;;;1.41;100.00
45731;BME280;31440;48.584;13.460;2023-02-22T02:12:56;96826.00;;;1.55;100.00
45731;BME280;31440;48.584;13.460;2023-02-22T02:16:02;96822.66;;;1.35;100.00
45731;BME280;31440;48.584;13.460;2023-02-22T02:19:29;96785.09;;;1.25;100.00
45731;BME280;31440;48.584;13.460;2023-02-22T02:25:56;96820.03;;;1.42;100.00
45731;BME280;31440;48.584;13.460;2023-02-22T02:29:43;96810.63;;;1.44;100.00
45731;BME280;31440;48.584;13.460;2023-02-22T02:32:57;96813.34;;;0.91;100.00
45731;BME280;31440;48.584;13.460;2023-02-22T02:36:28;96803.06;;;1.08;100.00
45731;BME280;31440;48.584;13.460;2023-02-22T02:39:58;96803.94;;;0.96;100.00
45731;BME280;31440;48.584;13.460;2023-02-22T02:43:31;96809.94;;;0.88;100.00
45731;BME280;31440;48.584;13.460;2023-02-22T02:46:47;96775.84;;;0.61;100.00
45731;BME280;31440;48.584;13.460;2023-02-22T02:53:18;96805.69;;;0.53;100.00
45731;BME280;31440;48.584;13.460;2023-02-22T02:56:26;96806.56;;;0.64;100.00
45731;BME280;31440;48.584;13.460;2023-02-22T02:59:36;96788.63;;;0.58;100.00
45731;BME280;31440;48.584;13.460;2023-02-22T03:09:29;96793.78;;;0.49;100.00
45731;BME280;31440;48.584;13.460;2023-02-22T03:13:18;96776.72;;;0.24;100.00
45731;BME280;31440;48.584;13.460;2023-02-22T03:19:50;96804.00;;;0.32;100.00
45731;BME280;31440;48.584;13.460;2023-02-22T03:23:16;96784.38;;;0.18;100.00
45731;BME280;31440;48.584;13.460;2023-02-22T03:26:34;96775.00;;;0.12;100.00
45731;BME280;31440;48.584;13.460;2023-02-22T03:29:42;96782.69;;;0.42;100.00
45731;BME280;31440;48.584;13.460;2023-02-22T03:32:55;96763.91;;;0.51;100.00
45731;BME280;31440;48.584;13.460;2023-02-22T03:36:08;96779.28;;;0.48;100.00
45731;BME280;31440;48.584;13.460;2023-02-22T03:39:15;96789.50;;;0.15;100.00
45731;BME280;31440;48.584;13.460;2023-02-22T03:42:25;96752.84;;;-0.06;100.00
45731;BME280;31440;48.584;13.460;2023-02-22T03:45:33;96763.91;;;-0.07;100.00
45731;BME280;31440;48.584;13.460;2023-02-22T03:48:52;96745.19;;;0.26;100.00
45731;BME280;31440;48.584;13.460;2023-02-22T03:52:02;96740.03;;;0.02;100.00
45731;BME280;31440;48.584;13.460;2023-02-22T03:55:10;96785.25;;;0.47;100.00
45731;BME280;31440;48.584;13.460;2023-02-22T03:58:17;96782.69;;;0.42;100.00
45731;BME280;31440;48.584;13.460;2023-02-22T04:01:23;96782.66;;;0.18;100.00
45731;BME280;31440;48.584;13.460;2023-02-22T04:04:28;96780.13;;;0.26;100.00
45731;BME280;31440;48.584;13.460;2023-02-22T04:07:33;96780.97;;;0.41;100.00
45731;BME280;31440;48.584;13.460;2023-02-22T04:10:38;96768.19;;;0.32;100.00
45731;BME280;31440;48.584;13.460;2023-02-22T04:13:44;96776.69;;;0.54;100.00
45731;BME280;31440;48.584;13.460;2023-02-22T04:16:49;96780.09;;;0.56;100.00
45731;BME280;31440;48.584;13.460;2023-02-22T04:19:54;96757.97;;;0.26;100.00
45731;BME280;31440;48.584;13.460;2023-02-22T04:23:00;96734.06;;;0.01;100.00
45731;BME280;31440;48.584;13.460;2023-02-22T04:26:05;96778.41;;;0.58;100.00
45731;BME280;31440;48.584;13.460;2023-02-22T04:29:11;96775.00;;;0.12;100.00
45731;BME280;31440;48.584;13.460;2023-02-22T04:32:17;96763.09;;;0.32;100.00
45731;BME280;31440;48.584;13.460;2023-02-22T04:35:22;96762.22;;;0.27;100.00
45731;BME280;31440;48.584;13.460;2023-02-22T04:38:27;96758.81;;;-0.07;100.00
45731;BME280;31440;48.584;13.460;2023-02-22T04:41:34;96733.22;;;0.01;100.00
45731;BME280;31440;48.584;13.460;2023-02-22T04:44:39;96727.28;;;-0.07;100.00
45731;BME280;31440;48.584;13.460;2023-02-22T04:47:44;96739.19;;;-0.09;100.00
45731;BME280;31440;48.584;13.460;2023-02-22T04:50:50;96704.25;;;-0.18;100.00
45731;BME280;31440;48.584;13.460;2023-02-22T04:53:56;96710.22;;;-0.25;100.00
45731;BME280;31440;48.584;13.460;2023-02-22T04:57:01;96749.41;;;-0.21;100.00
45731;BME280;31440;48.584;13.460;2023-02-22T05:00:06;96731.50;;;-0.28;100.00
45731;BME280;31440;48.584;13.460;2023-02-22T05:03:14;96751.97;;;-0.02;100.00
45731;BME280;31440;48.584;13.460;2023-02-22T05:06:18;96734.94;;;0.20;100.00
45731;BME280;31440;48.584;13.460;2023-02-22T05:09:23;96740.06;;;0.05;100.00
45731;BME280;31440;48.584;13.460;2023-02-22T05:12:28;96719.59;;;0.03;100.00
45731;BME280;31440;48.584;13.460;2023-02-22T05:15:32;96739.22;;;-0.03;100.00
45731;BME280;31440;48.584;13.460;2023-02-22T05:18:37;96738.34;;;-0.07;100.00
45731;BME280;31440;48.584;13.460;2023-02-22T05:21:42;96748.56;;;-0.02;100.00
45731;BME280;31440;48.584;13.460;2023-02-22T05:24:46;96725.56;;;0.07;100.00
45731;BME280;31440;48.584;13.460;2023-02-22T05:27:53;96699.97;;;-0.34;100.00
45731;BME280;31440;48.584;13.460;2023-02-22T05:30:58;96686.28;;;-0.68;100.00
45731;BME280;31440;48.584;13.460;2023-02-22T05:34:03;96735.75;;;-0.16;100.00
45731;BME280;31440;48.584;13.460;2023-02-22T05:37:08;96713.63;;;-0.23;100.00
45731;BME280;31440;48.584;13.460;2023-02-22T05:40:13;96685.38;;;-0.84;100.00
45731;BME280;31440;48.584;13.460;2023-02-22T05:43:18;96724.63;;;-0.59;100.00
45731;BME280;31440;48.584;13.460;2023-02-22T05:46:22;96738.31;;;-0.28;100.00
45731;BME280;31440;48.584;13.460;2023-02-22T05:49:27;96697.41;;;-0.49;100.00
45731;BME280;31440;48.584;13.460;2023-02-22T05:52:31;96686.38;;;-0.26;100.00
45731;BME280;31440;48.584;13.460;2023-02-22T05:55:36;96693.13;;;-0.38;100.00
45731;BME280;31440;48.584;13.460;2023-02-22T05:58:41;96734.91;;;-0.26;100.00
45731;BME280;31440;48.584;13.460;2023-02-22T06:01:45;96732.31;;;-0.36;100.00
45731;BME280;31440;48.584;13.460;2023-02-22T06:04:50;96705.06;;;-0.34;100.00
45731;BME280;31440;48.584;13.460;2023-02-22T06:07:55;96746.00;;;-0.16;100.00
45731;BME280;31440;48.584;13.460;2023-02-22T06:11:00;96745.16;;;0.06;100.00
45731;BME280;31440;48.584;13.460;2023-02-22T06:14:05;96744.34;;;0.14;100.00
45731;BME280;31440;48.584;13.460;2023-02-22T06:17:10;96744.31;;;0.30;100.00
45731;BME280;31440;48.584;13.460;2023-02-22T06:20:17;96739.19;;;0.01;100.00
45731;BME280;31440;48.584;13.460;2023-02-22T06:23:23;96736.66;;;0.14;100.00
45731;BME280;31440;48.584;13.460;2023-02-22T06:26:28;96700.00;;;0.04;100.00
45731;BME280;31440;48.584;13.460;2023-02-22T06:29:33;96709.38;;;0.00;100.00
45731;BME280;31440;48.584;13.460;2023-02-22T06:32:38;96732.38;;;0.09;100.00
45731;BME280;31440;48.584;13.460;2023-02-22T06:35:43;96723.84;;;0.47;100.00
45731;BME280;31440;48.584;13.460;2023-02-22T06:38:49;96734.94;;;0.35;100.00
45731;BME280;31440;48.584;13.460;2023-02-22T06:41:54;96722.16;;;0.20;100.00
45731;BME280;31440;48.584;13.460;2023-02-22T06:45:01;96756.25;;;0.28;100.00
45731;BME280;31440;48.584;13.460;2023-02-22T06:48:05;96750.28;;;0.40;100.00
45731;BME280;31440;48.584;13.460;2023-02-22T06:51:10;96760.50;;;0.35;100.00
45731;BME280;31440;48.584;13.460;2023-02-22T06:54:14;96753.69;;;0.42;100.00
45731;BME280;31440;48.584;13.460;2023-02-22T06:57:19;96754.56;;;0.47;100.00
45731;BME280;31440;48.584;13.460;2023-02-22T07:00:25;96750.25;;;0.61;100.00
45731;BME280;31440;48.584;13.460;2023-02-22T07:03:30;96754.53;;;0.67;100.00
45731;BME280;31440;48.584;13.460;2023-02-22T07:06:35;96749.34;;;0.88;100.00
45731;BME280;31440;48.584;13.460;2023-02-22T07:09:39;96749.19;;;1.40;100.00
45731;BME280;31440;48.584;13.460;2023-02-22T07:12:44;96732.25;;;0.98;100.00
45731;BME280;31440;48.584;13.460;2023-02-22T07:15:48;96740.81;;;0.94;100.00
45731;BME280;31440;48.584;13.460;2023-02-22T07:18:53;96748.19;;;1.67;100.00
45731;BME280;31440;48.584;13.460;2023-02-22T07:21:58;96751.75;;;1.38;100.00
45731;BME280;31440;48.584;13.460;2023-02-22T07:25:04;96716.84;;;1.07;100.00
45731;BME280;31440;48.584;13.460;2023-02-22T07:28:09;96747.34;;;1.65;100.00
45731;BME280;31440;48.584;13.460;2023-02-22T07:31:14;96727.84;;;1.39;100.00
45731;BME280;31440;48.584;13.460;2023-02-22T07:34:19;96720.19;;;1.24;100.00
45731;BME280;31440;48.584;13.460;2023-02-22T07:37:24;96742.06;;;1.91;100.00
45731;BME280;31440;48.584;13.460;2023-02-22T07:40:29;96740.25;;;2.08;100.00
45731;BME280;31440;48.584;13.460;2023-02-22T07:43:34;96749.44;;;2.30;100.00
45731;BME280;31440;48.584;13.460;2023-02-22T07:46:40;96724.75;;;2.22;100.00
45731;BME280;31440;48.584;13.460;2023-02-22T07:49:44;96713.53;;;2.30;100.00
45731;BME280;31440;48.584;13.460;2023-02-22T07:52:51;96740.41;;;2.84;100.00
45731;BME280;31440;48.584;13.460;2023-02-22T07:55:57;96746.94;;;3.16;100.00
45731;BME280;31440;48.584;13.460;2023-02-22T07:59:01;96743.53;;;3.15;100.00
45731;BME280;31440;48.584;13.460;2023-02-22T08:02:14;96725.59;;;3.11;100.00
45731;BME280;31440;48.584;13.460;2023-02-22T08:05:20;96746.75;;;3.33;100.00
45731;BME280;31440;48.584;13.460;2023-02-22T08:08:26;96738.16;;;3.34;100.00
45731;BME280;31440;48.584;13.460;2023-02-22T08:11:31;96720.91;;;3.42;100.00
45731;BME280;31440;48.584;13.460;2023-02-22T08:14:35;96712.72;;;3.11;100.00
45731;BME280;31440;48.584;13.460;2023-02-22T08:17:40;96704.22;;;3.06;100.00
45731;BME280;31440;48.584;13.460;2023-02-22T08:20:46;96729.03;;;3.76;100.00
45731;BME280;31440;48.584;13.460;2023-02-22T08:23:51;96696.00;;;3.48;100.00
45731;BME280;31440;48.584;13.460;2023-02-22T08:26:57;96731.13;;;4.09;100.00
45731;BME280;31440;48.584;13.460;2023-02-22T08:30:03;96728.91;;;3.85;100.00
45731;BME280;31440;48.584;13.460;2023-02-22T08:33:08;96728.88;;;3.91;100.00
45731;BME280;31440;48.584;13.460;2023-02-22T08:36:14;96725.63;;;4.34;100.00
45731;BME280;31440;48.584;13.460;2023-02-22T08:39:20;96724.72;;;4.36;100.00
45731;BME280;31440;48.584;13.460;2023-02-22T08:42:24;96687.34;;;4.14;100.00
45731;BME280;31440;48.584;13.460;2023-02-22T08:45:29;96673.00;;;4.50;100.00
45731;BME280;31440;48.584;13.460;2023-02-22T08:48:34;96713.34;;;5.40;100.00
45731;BME280;31440;48.584;13.460;2023-02-22T08:51:38;96708.44;;;5.28;100.00
45731;BME280;31440;48.584;13.460;2023-02-22T08:54:44;96712.16;;;5.55;100.00
45731;BME280;31440;48.584;13.460;2023-02-22T08:57:48;96675.88;;;5.24;100.00
45731;BME280;31440;48.584;13.460;2023-02-22T09:00:53;96685.56;;;5.13;100.00
45731;BME280;31440;48.584;13.460;2023-02-22T09:03:58;96679.06;;;6.12;100.00
45731;BME280;31440;48.584;13.460;2023-02-22T09:07:26;96685.59;;;6.62;100.00
45731;BME280;31440;48.584;13.460;2023-02-22T09:10:33;96685.88;;;6.84;100.00
45731;BME280;31440;48.584;13.460;2023-02-22T09:13:38;96681.31;;;6.26;100.00
45731;BME280;31440;48.584;13.460;2023-02-22T09:16:43;96694.22;;;6.61;100.00
45731;BME280;31440;48.584;13.460;2023-02-22T09:19:49;96670.53;;;6.78;100.00
45731;BME280;31440;48.584;13.460;2023-02-22T09:22:54;96690.94;;;6.89;100.00
45731;BME280;31440;48.584;13.460;2023-02-22T09:25:59;96685.94;;;7.45;100.00
45731;BME280;31440;48.584;13.460;2023-02-22T09:29:07;96675.41;;;7.20;100.00
45731;BME280;31440;48.584;13.460;2023-02-22T09:32:14;96680.31;;;7.30;100.00
45731;BME280;31440;48.584;13.460;2023-02-22T09:35:22;96666.94;;;7.73;100.00
45731;BME280;31440;48.584;13.460;2023-02-22T09:38:31;96672.41;;;7.92;100.00
45731;BME280;31440;48.584;13.460;2023-02-22T09:44:54;96668.44;;;8.08;100.00
45731;BME280;31440;48.584;13.460;2023-02-22T09:48:05;96644.72;;;8.49;100.00
45731;BME280;31440;48.584;13.460;2023-02-22T09:51:30;96637.25;;;9.12;100.00
45731;BME280;31440;48.584;13.460;2023-02-22T10:01:40;96639.13;;;9.79;100.00
45731;BME280;31440;48.584;13.460;2023-02-22T10:04:53;96629.41;;;10.48;100.00
45731;BME280;31440;48.584;13.460;2023-02-22T10:08:02;96630.88;;;10.94;100.00
45731;BME280;31440;48.584;13.460;2023-02-22T10:11:24;96615.78;;;11.23;100.00
45731;BME280;31440;48.584;13.460;2023-02-22T10:15:11;96607.19;;;11.20;100.00
45731;BME280;31440;48.584;13.460;2023-02-22T10:25:41;96607.94;;;12.68;100.00
45731;BME280;31440;48.584;13.460;2023-02-22T10:28:53;96598.63;;;12.63;100.00
45731;BME280;31440;48.584;13.460;2023-02-22T10:32:02;96573.53;;;12.77;100.00
45731;BME280;31440;48.584;13.460;2023-02-22T10:35:19;96585.38;;;13.00;96.40
45731;BME280;31440;48.584;13.460;2023-02-22T10:38:35;96588.00;;;13.65;90.25
45731;BME280;31440;48.584;13.460;2023-02-22T10:41:51;96583.16;;;13.58;85.44
45731;BME280;31440;48.584;13.460;2023-02-22T10:44:58;96567.59;;;14.03;86.43
45731;BME280;31440;48.584;13.460;2023-02-22T10:48:13;96572.03;;;14.16;82.35
45731;BME280;31440;48.584;13.460;2023-02-22T10:51:18;96561.28;;;14.95;78.48
45731;BME280;31440;48.584;13.460;2023-02-22T10:54:27;96571.75;;;14.95;73.99
45731;BME280;31440;48.584;13.460;2023-02-22T10:57:35;96569.22;;;15.50;67.78
45731;BME280;31440;48.584;13.460;2023-02-22T11:00:40;96565.97;;;15.18;69.08
45731;BME280;31440;48.584;13.460;2023-02-22T11:04:03;96562.72;;;15.56;65.46
45731;BME280;31440;48.584;13.460;2023-02-22T11:07:29;96538.56;;;16.06;60.93
45731;BME280;31440;48.584;13.460;2023-02-22T11:10:34;96550.72;;;14.96;64.92
45731;BME280;31440;48.584;13.460;2023-02-22T11:13:42;96529.19;;;15.20;67.58
45731;BME280;31440;48.584;13.460;2023-02-22T11:16:51;96528.84;;;15.94;61.54
45731;BME280;31440;48.584;13.460;2023-02-22T11:19:57;96535.63;;;16.11;58.25
45731;BME280;31440;48.584;13.460;2023-02-22T11:23:03;96531.47;;;15.94;56.76
45731;BME280;31440;48.584;13.460;2023-02-22T11:26:15;96530.31;;;16.90;57.80
45731;BME280;31440;48.584;13.460;2023-02-22T11:29:26;96518.66;;;17.56;54.97
45731;BME280;31440;48.584;13.460;2023-02-22T11:32:31;96513.47;;;18.38;54.41
45731;BME280;31440;48.584;13.460;2023-02-22T11:35:47;96514.25;;;17.43;56.11
45731;BME280;31440;48.584;13.460;2023-02-22T11:38:54;96500.28;;;18.03;53.18
45731;BME280;31440;48.584;13.460;2023-02-22T11:42:19;96495.75;;;16.96;54.94
45731;BME280;31440;48.584;13.460;2023-02-22T11:45:26;96482.06;;;17.16;52.93
45731;BME280;31440;48.584;13.460;2023-02-22T11:48:33;96479.56;;;18.34;51.67
45731;BME280;31440;48.584;13.460;2023-02-22T11:52:13;96476.09;;;17.74;51.55
45731;BME280;31440;48.584;13.460;2023-02-22T11:55:23;96461.50;;;17.70;48.24
45731;BME280;31440;48.584;13.460;2023-02-22T12:02:04;96461.34;;;17.85;48.76
45731;BME280;31440;48.584;13.460;2023-02-22T12:12:03;96448.16;;;19.44;46.87
45731;BME280;31440;48.584;13.460;2023-02-22T12:15:38;96443.63;;;18.68;48.63
45731;BME280;31440;48.584;13.460;2023-02-22T12:22:11;96438.75;;;19.51;48.00
45731;BME280;31440;48.584;13.460;2023-02-22T12:25:17;96437.91;;;19.51;46.63
45731;BME280;31440;48.584;13.460;2023-02-22T12:28:34;96420.75;;;19.02;46.77
45731;BME280;31440;48.584;13.460;2023-02-22T12:31:44;96427.91;;;20.29;45.33
45731;BME280;31440;48.584;13.460;2023-02-22T12:35:11;96426.72;;;19.69;45.46
45731;BME280;31440;48.584;13.460;2023-02-22T12:38:38;96429.22;;;19.82;45.88
45731;BME280;31440;48.584;13.460;2023-02-22T12:41:52;96417.00;;;19.38;47.02
45731;BME280;31440;48.584;13.460;2023-02-22T12:45:33;96418.84;;;19.90;46.03
45731;BME280;31440;48.584;13.460;2023-02-22T12:48:52;96429.63;;;19.98;46.05
45731;BME280;31440;48.584;13.460;2023-02-22T12:55:31;96406.78;;;20.29;43.47
45731;BME280;31440;48.584;13.460;2023-02-22T12:58:54;96416.63;;;19.74;44.00
45731;BME280;31440;48.584;13.460;2023-02-22T13:05:19;96401.06;;;19.71;45.17
45731;BME280;31440;48.584;13.460;2023-02-22T13:11:48;96407.75;;;19.43;44.00
45731;BME280;31440;48.584;13.460;2023-02-22T13:15:18;96400.94;;;19.73;43.54
45731;BME280;31440;48.584;13.460;2023-02-22T13:18:49;96399.63;;;20.92;42.97
45731;BME280;31440;48.584;13.460;2023-02-22T13:22:11;96399.38;;;20.44;42.76
45731;BME280;31440;48.584;13.460;2023-02-22T13:25:29;96396.66;;;21.26;41.90
45731;BME280;31440;48.584;13.460;2023-02-22T13:28:40;96391.38;;;20.55;42.31
45731;BME280;31440;48.584;13.460;2023-02-22T13:42:48;96378.72;;;20.79;42.20
45731;BME280;31440;48.584;13.460;2023-02-22T13:53:17;96365.84;;;20.35;40.17
45731;BME280;31440;48.584;13.460;2023-02-22T13:56:24;96362.06;;;20.89;40.46
45731;BME280;31440;48.584;13.460;2023-02-22T13:59:34;96366.09;;;20.62;43.02
45731;BME280;31440;48.584;13.460;2023-02-22T14:06:37;96355.78;;;21.39;37.90
45731;BME280;31440;48.584;13.460;2023-02-22T14:09:47;96357.09;;;20.13;40.56
45731;BME280;31440;48.584;13.460;2023-02-22T14:12:52;96336.34;;;20.91;40.34
45731;BME280;31440;48.584;13.460;2023-02-22T14:22:13;96343.13;;;19.81;41.11
45731;BME280;31440;48.584;13.460;2023-02-22T14:25:33;96342.47;;;21.01;40.64
45731;BME280;31440;48.584;13.460;2023-02-22T14:29:01;96336.47;;;19.45;42.39
45731;BME280;31440;48.584;13.460;2023-02-22T14:32:07;96325.09;;;19.65;42.26
45731;BME280;31440;48.584;13.460;2023-02-22T14:35:15;96330.88;;;19.59;42.24
45731;BME280;31440;48.584;13.460;2023-02-22T14:38:33;96325.94;;;20.07;41.29
45731;BME280;31440;48.584;13.460;2023-02-22T14:41:42;96321.19;;;20.62;41.26
45731;BME280;31440;48.584;13.460;2023-02-22T14:45:02;96325.22;;;20.57;40.27
45731;BME280;31440;48.584;13.460;2023-02-22T14:48:17;96326.19;;;20.86;39.50
45731;BME280;31440;48.584;13.460;2023-02-22T14:51:33;96328.69;;;20.97;40.91
45731;BME280;31440;48.584;13.460;2023-02-22T14:54:59;96322.78;;;20.74;40.17
45731;BME280;31440;48.584;13.460;2023-02-22T14:58:15;96320.38;;;20.01;41.75
45731;BME280;31440;48.584;13.460;2023-02-22T15:01:32;96328.31;;;19.69;42.00
45731;BME280;31440;48.584;13.460;2023-02-22T15:04:56;96314.69;;;19.85;41.81
45731;BME280;31440;48.584;13.460;2023-02-22T15:08:04;96322.94;;;19.38;42.70
45731;BME280;31440;48.584;13.460;2023-02-22T15:11:25;96328.38;;;19.78;41.50
45731;BME280;31440;48.584;13.460;2023-02-22T15:14:35;96320.59;;;19.77;41.55
45731;BME280;31440;48.584;13.460;2023-02-22T15:17:44;96318.47;;;19.92;41.08
45731;BME280;31440;48.584;13.460;2023-02-22T15:20:51;96322.41;;;20.18;42.38
45731;BME280;31440;48.584;13.460;2023-02-22T15:24:02;96315.19;;;18.71;44.10
45731;BME280;31440;48.584;13.460;2023-02-22T15:27:14;96322.78;;;19.08;43.26
45731;BME280;31440;48.584;13.460;2023-02-22T15:30:27;96313.28;;;18.62;43.69
45731;BME280;31440;48.584;13.460;2023-02-22T15:33:32;96306.03;;;19.41;42.20
45731;BME280;31440;48.584;13.460;2023-02-22T15:36:43;96321.97;;;17.85;45.43
45731;BME280;31440;48.584;13.460;2023-02-22T15:39:48;96303.19;;;17.19;47.76
45731;BME280;31440;48.584;13.460;2023-02-22T15:43:04;96318.50;;;17.25;46.74
45731;BME280;31440;48.584;13.460;2023-02-22T15:46:12;96319.31;;;16.42;49.69
45731;BME280;31440;48.584;13.460;2023-02-22T15:49:19;96306.59;;;15.59;52.39
45731;BME280;31440;48.584;13.460;2023-02-22T15:52:25;96307.44;;;15.20;55.77
45731;BME280;31440;48.584;13.460;2023-02-22T15:55:36;96303.31;;;15.04;57.51
45731;BME280;31440;48.584;13.460;2023-02-22T15:58:43;96325.50;;;14.98;58.80
45731;BME280;31440;48.584;13.460;2023-02-22T16:01:50;96311.53;;;14.29;63.71
45731;BME280;31440;48.584;13.460;2023-02-22T16:05:08;96313.28;;;14.15;64.76
45731;BME280;31440;48.584;13.460;2023-02-22T16:11:29;96311.28;;;13.61;71.07
45731;BME280;31440;48.584;13.460;2023-02-22T16:17:39;96315.19;;;13.54;73.12
45731;BME280;31440;48.584;13.460;2023-02-22T16:21:07;96325.63;;;12.63;81.64
45731;BME280;31440;48.584;13.460;2023-02-22T16:24:25;96321.84;;;12.84;81.96
45731;BME280;31440;48.584;13.460;2023-02-22T16:27:39;96327.47;;;12.61;84.23
45731;BME280;31440;48.584;13.460;2023-02-22T16:30:57;96329.59;;;12.21;88.06
45731;BME280;31440;48.584;13.460;2023-02-22T16:34:04;96336.22;;;12.44;86.53
45731;BME280;31440;48.584;13.460;2023-02-22T16:37:21;96339.84;;;12.73;83.80
45731;BME280;31440;48.584;13.460;2023-02-22T16:40:31;96343.72;;;12.50;85.63
45731;BME280;31440;48.584;13.460;2023-02-22T16:43:38;96344.56;;;12.34;87.14
45731;BME280;31440;48.584;13.460;2023-02-22T16:46:43;96339.56;;;12.31;87.13
45731;BME280;31440;48.584;13.460;2023-02-22T16:49:48;96339.56;;;12.31;86.93
45731;BME280;31440;48.584;13.460;2023-02-22T16:52:58;96330.91;;;11.97;89.29
45731;BME280;31440;48.584;13.460;2023-02-22T16:56:07;96348.69;;;12.22;88.16
45731;BME280;31440;48.584;13.460;2023-02-22T16:59:14;96335.94;;;12.00;90.60
45731;BME280;31440;48.584;13.460;2023-02-22T17:02:20;96344.81;;;12.13;89.90
45731;BME280;31440;48.584;13.460;2023-02-22T17:05:25;96323.00;;;11.99;90.18
45731;BME280;31440;48.584;13.460;2023-02-22T17:08:30;96335.63;;;11.73;93.80
45731;BME280;31440;48.584;13.460;2023-02-22T17:11:36;96329.56;;;11.73;92.19
45731;BME280;31440;48.584;13.460;2023-02-22T17:14:43;96351.31;;;11.72;93.68
45731;BME280;31440;48.584;13.460;2023-02-22T17:17:50;96355.31;;;11.79;93.56
45731;BME280;31440;48.584;13.460;2023-02-22T17:20:54;96353.88;;;12.06;90.89
45731;BME280;31440;48.584;13.460;2023-02-22T17:23:59;96353.28;;;11.84;92.85
45731;BME280;31440;48.584;13.460;2023-02-22T17:27:04;96337.38;;;11.73;94.58
45731;BME280;31440;48.584;13.460;2023-02-22T17:30:09;96339.53;;;11.65;95.19
45731;BME280;31440;48.584;13.460;2023-02-22T17:33:20;96355.75;;;11.87;93.39
45731;BME280;31440;48.584;13.460;2023-02-22T17:36:25;96352.41;;;12.01;92.13
45731;BME280;31440;48.584;13.460;2023-02-22T17:39:30;96350.66;;;11.51;97.50
45731;BME280;31440;48.584;13.460;2023-02-22T17:42:35;96356.00;;;11.48;99.14
45731;BME280;31440;48.584;13.460;2023-02-22T17:45:40;96368.94;;;11.32;100.00
45731;BME280;31440;48.584;13.460;2023-02-22T17:48:45;96336.50;;;11.22;100.00
45731;BME280;31440;48.584;13.460;2023-02-22T17:51:51;96370.06;;;11.44;100.00
45731;BME280;31440;48.584;13.460;2023-02-22T17:54:56;96325.31;;;11.54;97.06
45731;BME280;31440;48.584;13.460;2023-02-22T17:58:01;96359.84;;;11.75;94.41
45731;BME280;31440;48.584;13.460;2023-02-22T18:01:06;96356.31;;;11.42;98.82
45731;BME280;31440;48.584;13.460;2023-02-22T18:04:24;96366.66;;;11.07;100.00